sensor_id;sensor_type;location;lat;lon;timestamp;temperature;humidity
16158;DHT22;8184;60.256;18.694;2023-01-13T00:00:31;2.40;99.90
16158;DHT22;8184;60.256;18.694;2023-01-13T00:02:59;2.40;99.90
16158;DHT22;8184;60.256;18.694;2023-01-13T00:05:28;2.40;99.90
16158;DHT22;8184;60.256;18.694;2023-01-13T00:07:56;2.40;99.90
16158;DHT22;8184;60.256;18.694;2023-01-13T00:10:25;2.40;99.90
16158;DHT22;8184;60.256;18.694;2023-01-13T00:12:54;2.40;99.90
16158;DHT22;8184;60.256;18.694;2023-01-13T00:15:22;2.40;99.90
16158;DHT22;8184;60.256;18.694;2023-01-13T00:17:52;2.40;99.90
16158;DHT22;8184;60.256;18.694;2023-01-13T00:20:20;2.40;99.90
16158;DHT22;8184;60.256;18.694;2023-01-13T00:22:48;2.50;99.90
16158;DHT22;8184;60.256;18.694;2023-01-13T00:25:17;2.50;99.90
16158;DHT22;8184;60.256;18.694;2023-01-13T00:27:46;2.50;99.90
16158;DHT22;8184;60.256;18.694;2023-01-13T00:30:15;2.50;99.90
16158;DHT22;8184;60.256;18.694;2023-01-13T00:32:43;2.50;99.90
16158;DHT22;8184;60.256;18.694;2023-01-13T00:35:11;2.50;99.90
16158;DHT22;8184;60.256;18.694;2023-01-13T00:37:39;2.50;99.90
16158;DHT22;8184;60.256;18.694;2023-01-13T00:40:08;2.50;99.90
16158;DHT22;8184;60.256;18.694;2023-01-13T00:42:37;2.40;99.90
16158;DHT22;8184;60.256;18.694;2023-01-13T00:45:24;2.40;99.90
16158;DHT22;8184;60.256;18.694;2023-01-13T00:47:52;2.50;99.90
16158;DHT22;8184;60.256;18.694;2023-01-13T00:50:20;2.50;99.90
16158;DHT22;8184;60.256;18.694;2023-01-13T00:52:48;2.50;99.90
16158;DHT22;8184;60.256;18.694;2023-01-13T00:55:17;2.50;99.90
16158;DHT22;8184;60.256;18.694;2023-01-13T00:57:45;2.50;99.90
16158;DHT22;8184;60.256;18.694;2023-01-13T01:00:13;2.50;99.90
16158;DHT22;8184;60.256;18.694;2023-01-13T01:02:43;2.50;99.90
16158;DHT22;8184;60.256;18.694;2023-01-13T01:05:11;2.50;99.90
16158;DHT22;8184;60.256;18.694;2023-01-13T01:07:39;2.50;99.90
16158;DHT22;8184;60.256;18.694;2023-01-13T01:10:08;2.50;99.90
16158;DHT22;8184;60.256;18.694;2023-01-13T01:12:36;2.40;99.90
16158;DHT22;8184;60.256;18.694;2023-01-13T01:15:05;2.40;99.90
16158;DHT22;8184;60.256;18.694;2023-01-13T01:17:35;2.40;99.90
16158;DHT22;8184;60.256;18.694;2023-01-13T01:20:05;2.40;99.90
16158;DHT22;8184;60.256;18.694;2023-01-13T01:22:34;2.40;99.90
16158;DHT22;8184;60.256;18.694;2023-01-13T01:25:02;2.30;99.90
16158;DHT22;8184;60.256;18.694;2023-01-13T01:27:30;2.30;99.90
16158;DHT22;8184;60.256;18.694;2023-01-13T01:29:58;2.20;99.90
16158;DHT22;8184;60.256;18.694;2023-01-13T01:32:27;2.20;99.90
16158;DHT22;8184;60.256;18.694;2023-01-13T01:34:55;2.10;99.90
16158;DHT22;8184;60.256;18.694;2023-01-13T01:37:25;2.10;99.90
16158;DHT22;8184;60.256;18.694;2023-01-13T01:39:53;2.10;99.90
16158;DHT22;8184;60.256;18.694;2023-01-13T01:42:21;2.10;99.90
16158;DHT22;8184;60.256;18.694;2023-01-13T01:45:12;2.10;99.90
16158;DHT22;8184;60.256;18.694;2023-01-13T01:47:41;2.10;99.90
16158;DHT22;8184;60.256;18.694;2023-01-13T01:50:10;2.00;99.90
16158;DHT22;8184;60.256;18.694;2023-01-13T01:52:40;2.00;99.90
16158;DHT22;8184;60.256;18.694;2023-01-13T01:55:12;1.90;99.90
16158;DHT22;8184;60.256;18.694;2023-01-13T01:57:41;2.00;99.90
16158;DHT22;8184;60.256;18.694;2023-01-13T02:00:11;2.00;99.90
16158;DHT22;8184;60.256;18.694;2023-01-13T02:02:39;2.00;99.90
16158;DHT22;8184;60.256;18.694;2023-01-13T02:05:08;2.00;99.90
16158;DHT22;8184;60.256;18.694;2023-01-13T02:07:37;2.00;99.90
16158;DHT22;8184;60.256;18.694;2023-01-13T02:10:08;2.00;99.90
16158;DHT22;8184;60.256;18.694;2023-01-13T02:12:37;2.00;99.90
16158;DHT22;8184;60.256;18.694;2023-01-13T02:15:08;1.90;99.90
16158;DHT22;8184;60.256;18.694;2023-01-13T02:17:44;2.00;99.90
16158;DHT22;8184;60.256;18.694;2023-01-13T02:20:37;2.00;99.90
16158;DHT22;8184;60.256;18.694;2023-01-13T02:23:16;2.00;99.90
16158;DHT22;8184;60.256;18.694;2023-01-13T02:26:18;2.00;99.90
16158;DHT22;8184;60.256;18.694;2023-01-13T02:28:55;2.10;99.90
16158;DHT22;8184;60.256;18.694;2023-01-13T02:31:46;2.10;99.90
16158;DHT22;8184;60.256;18.694;2023-01-13T02:34:16;2.10;99.90
16158;DHT22;8184;60.256;18.694;2023-01-13T02:36:47;2.10;99.90
16158;DHT22;8184;60.256;18.694;2023-01-13T02:39:20;2.00;99.90
16158;DHT22;8184;60.256;18.694;2023-01-13T02:41:50;2.10;99.90
16158;DHT22;8184;60.256;18.694;2023-01-13T02:44:39;2.10;99.90
16158;DHT22;8184;60.256;18.694;2023-01-13T02:47:12;2.10;99.90
16158;DHT22;8184;60.256;18.694;2023-01-13T02:49:44;2.10;99.90
16158;DHT22;8184;60.256;18.694;2023-01-13T02:52:13;2.10;99.90
16158;DHT22;8184;60.256;18.694;2023-01-13T02:54:44;2.10;99.90
16158;DHT22;8184;60.256;18.694;2023-01-13T02:57:14;2.10;99.90
16158;DHT22;8184;60.256;18.694;2023-01-13T02:59:43;2.10;99.90
16158;DHT22;8184;60.256;18.694;2023-01-13T03:02:13;2.10;99.90
16158;DHT22;8184;60.256;18.694;2023-01-13T03:04:45;2.20;99.90
16158;DHT22;8184;60.256;18.694;2023-01-13T03:07:19;2.20;99.90
16158;DHT22;8184;60.256;18.694;2023-01-13T03:09:52;2.30;99.90
16158;DHT22;8184;60.256;18.694;2023-01-13T03:12:25;2.30;99.90
16158;DHT22;8184;60.256;18.694;2023-01-13T03:14:56;2.30;99.90
16158;DHT22;8184;60.256;18.694;2023-01-13T03:17:29;2.30;99.90
16158;DHT22;8184;60.256;18.694;2023-01-13T03:20:02;2.20;99.90
16158;DHT22;8184;60.256;18.694;2023-01-13T03:22:33;2.30;99.90
16158;DHT22;8184;60.256;18.694;2023-01-13T03:25:04;2.30;99.90
16158;DHT22;8184;60.256;18.694;2023-01-13T03:27:38;2.30;99.90
16158;DHT22;8184;60.256;18.694;2023-01-13T03:30:08;2.30;99.90
16158;DHT22;8184;60.256;18.694;2023-01-13T03:32:41;2.30;99.90
16158;DHT22;8184;60.256;18.694;2023-01-13T03:35:10;2.30;99.90
16158;DHT22;8184;60.256;18.694;2023-01-13T03:37:42;2.30;99.90
16158;DHT22;8184;60.256;18.694;2023-01-13T03:40:13;2.30;99.90
16158;DHT22;8184;60.256;18.694;2023-01-13T03:42:43;2.30;99.90
16158;DHT22;8184;60.256;18.694;2023-01-13T03:45:33;2.30;99.90
16158;DHT22;8184;60.256;18.694;2023-01-13T03:48:04;2.30;99.90
16158;DHT22;8184;60.256;18.694;2023-01-13T03:50:34;2.30;99.90
16158;DHT22;8184;60.256;18.694;2023-01-13T03:53:04;2.30;99.90
16158;DHT22;8184;60.256;18.694;2023-01-13T03:55:34;2.30;99.90
16158;DHT22;8184;60.256;18.694;2023-01-13T03:58:04;2.30;99.90
16158;DHT22;8184;60.256;18.694;2023-01-13T04:00:36;2.30;99.90
16158;DHT22;8184;60.256;18.694;2023-01-13T04:03:10;2.30;99.90
16158;DHT22;8184;60.256;18.694;2023-01-13T04:05:40;2.30;99.90
16158;DHT22;8184;60.256;18.694;2023-01-13T04:08:10;2.30;99.90
16158;DHT22;8184;60.256;18.694;2023-01-13T04:10:43;2.30;99.90
16158;DHT22;8184;60.256;18.694;2023-01-13T04:13:13;2.30;99.90
16158;DHT22;8184;60.256;18.694;2023-01-13T04:15:43;2.30;99.90
16158;DHT22;8184;60.256;18.694;2023-01-13T04:18:15;2.30;99.90
16158;DHT22;8184;60.256;18.694;2023-01-13T04:20:44;2.30;99.90
16158;DHT22;8184;60.256;18.694;2023-01-13T04:23:13;2.40;99.90
16158;DHT22;8184;60.256;18.694;2023-01-13T04:25:41;2.30;99.90
16158;DHT22;8184;60.256;18.694;2023-01-13T04:28:11;2.30;99.90
16158;DHT22;8184;60.256;18.694;2023-01-13T04:30:40;2.30;99.90
16158;DHT22;8184;60.256;18.694;2023-01-13T04:33:08;2.40;99.90
16158;DHT22;8184;60.256;18.694;2023-01-13T04:35:38;2.40;99.90
16158;DHT22;8184;60.256;18.694;2023-01-13T04:38:07;2.40;99.90
16158;DHT22;8184;60.256;18.694;2023-01-13T04:40:36;2.40;99.90
16158;DHT22;8184;60.256;18.694;2023-01-13T04:43:04;2.40;99.90
16158;DHT22;8184;60.256;18.694;2023-01-13T04:45:32;2.40;99.90
16158;DHT22;8184;60.256;18.694;2023-01-13T04:48:01;2.40;99.90
16158;DHT22;8184;60.256;18.694;2023-01-13T04:50:29;2.30;99.90
16158;DHT22;8184;60.256;18.694;2023-01-13T04:53:01;2.30;99.90
16158;DHT22;8184;60.256;18.694;2023-01-13T04:55:29;2.30;99.90
16158;DHT22;8184;60.256;18.694;2023-01-13T04:58:00;2.20;99.90
16158;DHT22;8184;60.256;18.694;2023-01-13T05:00:29;2.20;99.90
16158;DHT22;8184;60.256;18.694;2023-01-13T05:02:57;2.20;99.90
16158;DHT22;8184;60.256;18.694;2023-01-13T05:05:26;2.30;99.90
16158;DHT22;8184;60.256;18.694;2023-01-13T05:07:55;2.30;99.90
16158;DHT22;8184;60.256;18.694;2023-01-13T05:10:24;2.30;99.90
16158;DHT22;8184;60.256;18.694;2023-01-13T05:12:53;2.30;99.90
16158;DHT22;8184;60.256;18.694;2023-01-13T05:15:39;2.30;99.90
16158;DHT22;8184;60.256;18.694;2023-01-13T05:18:24;2.20;99.90
16158;DHT22;8184;60.256;18.694;2023-01-13T05:20:53;2.20;99.90
16158;DHT22;8184;60.256;18.694;2023-01-13T05:23:21;2.30;99.90
16158;DHT22;8184;60.256;18.694;2023-01-13T05:26:08;2.20;99.90
16158;DHT22;8184;60.256;18.694;2023-01-13T05:28:37;2.20;99.90
16158;DHT22;8184;60.256;18.694;2023-01-13T05:31:05;2.20;99.90
16158;DHT22;8184;60.256;18.694;2023-01-13T05:33:33;2.20;99.90
16158;DHT22;8184;60.256;18.694;2023-01-13T05:36:02;2.20;99.90
16158;DHT22;8184;60.256;18.694;2023-01-13T05:38:31;2.20;99.90
16158;DHT22;8184;60.256;18.694;2023-01-13T05:40:59;2.10;99.90
16158;DHT22;8184;60.256;18.694;2023-01-13T05:43:47;2.10;99.90
16158;DHT22;8184;60.256;18.694;2023-01-13T05:46:15;2.10;99.90
16158;DHT22;8184;60.256;18.694;2023-01-13T05:48:43;2.10;99.90
16158;DHT22;8184;60.256;18.694;2023-01-13T05:51:11;2.00;99.90
16158;DHT22;8184;60.256;18.694;2023-01-13T05:53:40;2.00;99.90
16158;DHT22;8184;60.256;18.694;2023-01-13T05:56:08;2.00;99.90
16158;DHT22;8184;60.256;18.694;2023-01-13T05:58:37;1.90;99.90
16158;DHT22;8184;60.256;18.694;2023-01-13T06:01:07;1.90;99.90
16158;DHT22;8184;60.256;18.694;2023-01-13T06:03:35;1.80;99.90
16158;DHT22;8184;60.256;18.694;2023-01-13T06:06:06;1.80;99.90
16158;DHT22;8184;60.256;18.694;2023-01-13T06:08:35;1.70;99.90
16158;DHT22;8184;60.256;18.694;2023-01-13T06:11:06;1.70;99.90
16158;DHT22;8184;60.256;18.694;2023-01-13T06:13:34;1.70;99.90
16158;DHT22;8184;60.256;18.694;2023-01-13T06:16:03;1.70;99.90
16158;DHT22;8184;60.256;18.694;2023-01-13T06:18:32;1.60;99.90
16158;DHT22;8184;60.256;18.694;2023-01-13T06:21:00;1.60;99.90
16158;DHT22;8184;60.256;18.694;2023-01-13T06:23:29;1.60;99.90
16158;DHT22;8184;60.256;18.694;2023-01-13T06:26:03;1.50;99.90
16158;DHT22;8184;60.256;18.694;2023-01-13T06:28:35;1.50;99.90
16158;DHT22;8184;60.256;18.694;2023-01-13T06:31:04;1.50;99.90
16158;DHT22;8184;60.256;18.694;2023-01-13T06:33:35;1.50;99.90
16158;DHT22;8184;60.256;18.694;2023-01-13T06:36:04;1.50;99.90
16158;DHT22;8184;60.256;18.694;2023-01-13T06:38:35;1.40;99.90
16158;DHT22;8184;60.256;18.694;2023-01-13T06:41:05;1.40;99.90
16158;DHT22;8184;60.256;18.694;2023-01-13T06:43:34;1.40;99.90
16158;DHT22;8184;60.256;18.694;2023-01-13T06:46:01;1.40;99.90
16158;DHT22;8184;60.256;18.694;2023-01-13T06:48:30;1.40;99.90
16158;DHT22;8184;60.256;18.694;2023-01-13T06:51:02;1.30;99.90
16158;DHT22;8184;60.256;18.694;2023-01-13T06:53:31;1.30;99.90
16158;DHT22;8184;60.256;18.694;2023-01-13T06:55:59;1.30;99.90
16158;DHT22;8184;60.256;18.694;2023-01-13T06:58:27;1.40;99.90
16158;DHT22;8184;60.256;18.694;2023-01-13T07:00:58;1.40;99.90
16158;DHT22;8184;60.256;18.694;2023-01-13T07:03:27;1.40;99.90
16158;DHT22;8184;60.256;18.694;2023-01-13T07:05:55;1.40;99.90
16158;DHT22;8184;60.256;18.694;2023-01-13T07:08:25;1.30;99.90
16158;DHT22;8184;60.256;18.694;2023-01-13T07:10:54;1.30;99.90
16158;DHT22;8184;60.256;18.694;2023-01-13T07:13:22;1.30;99.90
16158;DHT22;8184;60.256;18.694;2023-01-13T07:16:08;1.30;99.90
16158;DHT22;8184;60.256;18.694;2023-01-13T07:18:36;1.30;99.90
16158;DHT22;8184;60.256;18.694;2023-01-13T07:21:05;1.30;99.90
16158;DHT22;8184;60.256;18.694;2023-01-13T07:23:35;1.30;99.90
16158;DHT22;8184;60.256;18.694;2023-01-13T07:26:05;1.30;99.90
16158;DHT22;8184;60.256;18.694;2023-01-13T07:28:36;1.30;99.90
16158;DHT22;8184;60.256;18.694;2023-01-13T07:31:07;1.30;99.90
16158;DHT22;8184;60.256;18.694;2023-01-13T07:33:39;1.20;99.90
16158;DHT22;8184;60.256;18.694;2023-01-13T07:36:08;1.20;99.90
16158;DHT22;8184;60.256;18.694;2023-01-13T07:38:38;1.20;99.90
16158;DHT22;8184;60.256;18.694;2023-01-13T07:41:06;1.20;99.90
16158;DHT22;8184;60.256;18.694;2023-01-13T07:43:48;1.10;99.90
16158;DHT22;8184;60.256;18.694;2023-01-13T07:46:17;1.20;99.90
16158;DHT22;8184;60.256;18.694;2023-01-13T07:48:45;1.30;99.90
16158;DHT22;8184;60.256;18.694;2023-01-13T07:51:14;1.40;99.90
16158;DHT22;8184;60.256;18.694;2023-01-13T07:53:43;1.40;99.90
16158;DHT22;8184;60.256;18.694;2023-01-13T07:56:12;1.40;99.90
16158;DHT22;8184;60.256;18.694;2023-01-13T07:58:40;1.50;99.90
16158;DHT22;8184;60.256;18.694;2023-01-13T08:01:09;1.50;99.90
16158;DHT22;8184;60.256;18.694;2023-01-13T08:03:38;1.50;99.90
16158;DHT22;8184;60.256;18.694;2023-01-13T08:06:06;1.50;99.90
16158;DHT22;8184;60.256;18.694;2023-01-13T08:08:35;1.50;99.90
16158;DHT22;8184;60.256;18.694;2023-01-13T08:11:06;1.50;99.90
16158;DHT22;8184;60.256;18.694;2023-01-13T08:13:34;1.60;99.90
16158;DHT22;8184;60.256;18.694;2023-01-13T08:16:03;1.60;99.90
16158;DHT22;8184;60.256;18.694;2023-01-13T08:18:32;1.70;99.90
16158;DHT22;8184;60.256;18.694;2023-01-13T08:21:01;1.80;99.90
16158;DHT22;8184;60.256;18.694;2023-01-13T08:23:29;1.80;99.90
16158;DHT22;8184;60.256;18.694;2023-01-13T08:25:58;1.80;99.90
16158;DHT22;8184;60.256;18.694;2023-01-13T08:28:31;1.80;99.90
16158;DHT22;8184;60.256;18.694;2023-01-13T08:30:59;1.90;99.90
16158;DHT22;8184;60.256;18.694;2023-01-13T08:33:28;1.90;99.90
16158;DHT22;8184;60.256;18.694;2023-01-13T08:35:57;2.00;99.90
16158;DHT22;8184;60.256;18.694;2023-01-13T08:38:25;2.00;99.90
16158;DHT22;8184;60.256;18.694;2023-01-13T08:40:53;2.00;99.90
16158;DHT22;8184;60.256;18.694;2023-01-13T08:43:21;2.00;99.90
16158;DHT22;8184;60.256;18.694;2023-01-13T08:45:56;2.00;99.90
16158;DHT22;8184;60.256;18.694;2023-01-13T08:48:25;2.00;99.90
16158;DHT22;8184;60.256;18.694;2023-01-13T08:51:00;2.00;99.90
16158;DHT22;8184;60.256;18.694;2023-01-13T08:53:29;2.10;99.90
16158;DHT22;8184;60.256;18.694;2023-01-13T08:55:57;2.00;99.90
16158;DHT22;8184;60.256;18.694;2023-01-13T08:58:25;2.10;99.90
16158;DHT22;8184;60.256;18.694;2023-01-13T09:00:53;2.10;99.90
16158;DHT22;8184;60.256;18.694;2023-01-13T09:03:23;2.10;99.90
16158;DHT22;8184;60.256;18.694;2023-01-13T09:05:51;2.10;99.90
16158;DHT22;8184;60.256;18.694;2023-01-13T09:08:20;2.20;99.90
16158;DHT22;8184;60.256;18.694;2023-01-13T09:10:48;2.10;99.90
16158;DHT22;8184;60.256;18.694;2023-01-13T09:13:16;2.20;99.90
16158;DHT22;8184;60.256;18.694;2023-01-13T09:15:46;2.20;99.90
16158;DHT22;8184;60.256;18.694;2023-01-13T09:18:14;2.20;99.90
16158;DHT22;8184;60.256;18.694;2023-01-13T09:20:44;2.20;99.90
16158;DHT22;8184;60.256;18.694;2023-01-13T09:23:12;2.30;99.90
16158;DHT22;8184;60.256;18.694;2023-01-13T09:25:40;2.30;99.90
16158;DHT22;8184;60.256;18.694;2023-01-13T09:28:09;2.20;99.90
16158;DHT22;8184;60.256;18.694;2023-01-13T09:30:40;2.20;99.90
16158;DHT22;8184;60.256;18.694;2023-01-13T09:33:08;2.20;99.90
16158;DHT22;8184;60.256;18.694;2023-01-13T09:35:57;2.30;99.90
16158;DHT22;8184;60.256;18.694;2023-01-13T09:38:27;2.30;99.90
16158;DHT22;8184;60.256;18.694;2023-01-13T09:40:55;2.30;99.90
16158;DHT22;8184;60.256;18.694;2023-01-13T09:43:24;2.30;99.90
16158;DHT22;8184;60.256;18.694;2023-01-13T09:46:15;2.30;99.90
16158;DHT22;8184;60.256;18.694;2023-01-13T09:48:58;2.30;99.90
16158;DHT22;8184;60.256;18.694;2023-01-13T09:51:32;2.40;99.90
16158;DHT22;8184;60.256;18.694;2023-01-13T09:54:06;2.40;99.90
16158;DHT22;8184;60.256;18.694;2023-01-13T09:56:38;2.40;99.90
16158;DHT22;8184;60.256;18.694;2023-01-13T09:59:07;2.40;99.90
16158;DHT22;8184;60.256;18.694;2023-01-13T10:01:41;2.40;99.90
16158;DHT22;8184;60.256;18.694;2023-01-13T10:04:13;2.40;99.90
16158;DHT22;8184;60.256;18.694;2023-01-13T10:06:44;2.40;99.90
16158;DHT22;8184;60.256;18.694;2023-01-13T10:09:16;2.50;99.90
16158;DHT22;8184;60.256;18.694;2023-01-13T10:11:48;2.50;99.90
16158;DHT22;8184;60.256;18.694;2023-01-13T10:14:37;2.50;99.90
16158;DHT22;8184;60.256;18.694;2023-01-13T10:17:07;2.50;99.90
16158;DHT22;8184;60.256;18.694;2023-01-13T10:19:40;2.50;99.90
16158;DHT22;8184;60.256;18.694;2023-01-13T10:22:17;2.60;99.90
16158;DHT22;8184;60.256;18.694;2023-01-13T10:24:56;2.60;99.90
16158;DHT22;8184;60.256;18.694;2023-01-13T10:27:30;2.60;99.90
16158;DHT22;8184;60.256;18.694;2023-01-13T10:30:09;2.70;99.90
16158;DHT22;8184;60.256;18.694;2023-01-13T10:32:38;2.70;99.90
16158;DHT22;8184;60.256;18.694;2023-01-13T10:35:07;2.70;99.90
16158;DHT22;8184;60.256;18.694;2023-01-13T10:37:37;2.70;99.90
16158;DHT22;8184;60.256;18.694;2023-01-13T10:40:11;2.80;99.90
16158;DHT22;8184;60.256;18.694;2023-01-13T10:42:44;2.80;99.90
16158;DHT22;8184;60.256;18.694;2023-01-13T10:45:16;2.90;99.90
16158;DHT22;8184;60.256;18.694;2023-01-13T10:48:02;2.80;99.90
16158;DHT22;8184;60.256;18.694;2023-01-13T10:50:33;2.90;99.90
16158;DHT22;8184;60.256;18.694;2023-01-13T10:53:15;2.90;99.90
16158;DHT22;8184;60.256;18.694;2023-01-13T10:55:56;2.90;99.90
16158;DHT22;8184;60.256;18.694;2023-01-13T10:58:25;2.90;99.90
16158;DHT22;8184;60.256;18.694;2023-01-13T11:01:00;2.90;99.90
16158;DHT22;8184;60.256;18.694;2023-01-13T11:03:34;2.90;99.90
16158;DHT22;8184;60.256;18.694;2023-01-13T11:06:02;2.80;99.90
16158;DHT22;8184;60.256;18.694;2023-01-13T11:08:39;2.90;99.90
16158;DHT22;8184;60.256;18.694;2023-01-13T11:11:23;2.90;99.90
16158;DHT22;8184;60.256;18.694;2023-01-13T11:13:52;2.90;99.90
16158;DHT22;8184;60.256;18.694;2023-01-13T11:16:44;2.90;99.90
16158;DHT22;8184;60.256;18.694;2023-01-13T11:19:19;2.90;99.90
16158;DHT22;8184;60.256;18.694;2023-01-13T11:21:51;3.00;99.90
16158;DHT22;8184;60.256;18.694;2023-01-13T11:24:22;3.00;99.90
16158;DHT22;8184;60.256;18.694;2023-01-13T11:26:54;3.00;99.90
16158;DHT22;8184;60.256;18.694;2023-01-13T11:29:25;3.00;99.90
16158;DHT22;8184;60.256;18.694;2023-01-13T11:31:59;3.00;99.90
16158;DHT22;8184;60.256;18.694;2023-01-13T11:34:31;3.00;99.90
16158;DHT22;8184;60.256;18.694;2023-01-13T11:37:01;3.00;99.90
16158;DHT22;8184;60.256;18.694;2023-01-13T11:39:36;3.00;99.90
16158;DHT22;8184;60.256;18.694;2023-01-13T11:42:10;3.00;99.90
16158;DHT22;8184;60.256;18.694;2023-01-13T11:44:52;3.00;99.90
16158;DHT22;8184;60.256;18.694;2023-01-13T11:47:23;3.00;99.90
16158;DHT22;8184;60.256;18.694;2023-01-13T11:49:53;3.00;99.90
16158;DHT22;8184;60.256;18.694;2023-01-13T11:52:22;3.00;99.90
16158;DHT22;8184;60.256;18.694;2023-01-13T11:55:02;3.00;99.90
16158;DHT22;8184;60.256;18.694;2023-01-13T12:00:20;3.00;99.90
16158;DHT22;8184;60.256;18.694;2023-01-13T12:02:54;3.00;99.90
16158;DHT22;8184;60.256;18.694;2023-01-13T12:05:28;3.10;99.90
16158;DHT22;8184;60.256;18.694;2023-01-13T12:08:04;3.10;99.90
16158;DHT22;8184;60.256;18.694;2023-01-13T12:10:39;3.10;99.90
16158;DHT22;8184;60.256;18.694;2023-01-13T12:13:14;3.20;99.90
16158;DHT22;8184;60.256;18.694;2023-01-13T12:15:55;3.10;99.90
16158;DHT22;8184;60.256;18.694;2023-01-13T12:21:15;3.20;99.90
16158;DHT22;8184;60.256;18.694;2023-01-13T12:23:46;3.20;99.90
16158;DHT22;8184;60.256;18.694;2023-01-13T12:26:17;3.20;99.90
16158;DHT22;8184;60.256;18.694;2023-01-13T12:28:47;3.20;99.90
16158;DHT22;8184;60.256;18.694;2023-01-13T12:31:16;3.30;99.90
16158;DHT22;8184;60.256;18.694;2023-01-13T12:33:58;3.30;99.90
16158;DHT22;8184;60.256;18.694;2023-01-13T12:36:28;3.30;99.90
16158;DHT22;8184;60.256;18.694;2023-01-13T12:39:02;3.30;99.90
16158;DHT22;8184;60.256;18.694;2023-01-13T12:41:39;3.30;99.90
16158;DHT22;8184;60.256;18.694;2023-01-13T12:44:29;3.30;99.90
16158;DHT22;8184;60.256;18.694;2023-01-13T12:46:56;3.40;99.90
16158;DHT22;8184;60.256;18.694;2023-01-13T12:49:27;3.40;99.90
16158;DHT22;8184;60.256;18.694;2023-01-13T12:57:38;3.40;99.90
16158;DHT22;8184;60.256;18.694;2023-01-13T13:00:21;3.40;99.90
16158;DHT22;8184;60.256;18.694;2023-01-13T13:05:47;3.40;99.90
16158;DHT22;8184;60.256;18.694;2023-01-13T13:08:18;3.40;99.90
16158;DHT22;8184;60.256;18.694;2023-01-13T13:10:55;3.50;99.90
16158;DHT22;8184;60.256;18.694;2023-01-13T13:18:55;3.60;99.90
16158;DHT22;8184;60.256;18.694;2023-01-13T13:24:28;3.60;99.90
16158;DHT22;8184;60.256;18.694;2023-01-13T13:26:57;3.60;99.90
16158;DHT22;8184;60.256;18.694;2023-01-13T13:29:44;3.60;99.90
16158;DHT22;8184;60.256;18.694;2023-01-13T13:32:31;3.60;99.90
16158;DHT22;8184;60.256;18.694;2023-01-13T13:35:07;3.60;99.90
16158;DHT22;8184;60.256;18.694;2023-01-13T13:37:45;3.50;99.90
16158;DHT22;8184;60.256;18.694;2023-01-13T13:40:37;3.50;99.90
16158;DHT22;8184;60.256;18.694;2023-01-13T13:43:23;3.50;99.90
16158;DHT22;8184;60.256;18.694;2023-01-13T13:46:22;3.50;99.90
16158;DHT22;8184;60.256;18.694;2023-01-13T13:49:08;3.50;99.90
16158;DHT22;8184;60.256;18.694;2023-01-13T13:51:44;3.50;99.90
16158;DHT22;8184;60.256;18.694;2023-01-13T13:54:15;3.50;99.90
16158;DHT22;8184;60.256;18.694;2023-01-13T13:56:45;3.60;99.90
16158;DHT22;8184;60.256;18.694;2023-01-13T13:59:15;3.60;99.90
16158;DHT22;8184;60.256;18.694;2023-01-13T14:01:45;3.60;99.90
16158;DHT22;8184;60.256;18.694;2023-01-13T14:04:18;3.70;99.90
16158;DHT22;8184;60.256;18.694;2023-01-13T14:06:51;3.70;99.90
16158;DHT22;8184;60.256;18.694;2023-01-13T14:09:19;3.80;99.90
16158;DHT22;8184;60.256;18.694;2023-01-13T14:11:55;3.70;99.90
16158;DHT22;8184;60.256;18.694;2023-01-13T14:14:24;3.80;99.90
16158;DHT22;8184;60.256;18.694;2023-01-13T14:16:52;3.70;99.90
16158;DHT22;8184;60.256;18.694;2023-01-13T14:19:24;3.60;99.90
16158;DHT22;8184;60.256;18.694;2023-01-13T14:21:54;3.60;99.90
16158;DHT22;8184;60.256;18.694;2023-01-13T14:24:23;3.60;99.90
16158;DHT22;8184;60.256;18.694;2023-01-13T14:27:05;3.50;99.90
16158;DHT22;8184;60.256;18.694;2023-01-13T14:29:34;3.60;99.90
16158;DHT22;8184;60.256;18.694;2023-01-13T14:32:02;3.60;99.90
16158;DHT22;8184;60.256;18.694;2023-01-13T14:34:31;3.60;99.90
16158;DHT22;8184;60.256;18.694;2023-01-13T14:37:21;3.60;99.90
16158;DHT22;8184;60.256;18.694;2023-01-13T14:39:50;3.60;99.90
16158;DHT22;8184;60.256;18.694;2023-01-13T14:42:19;3.70;99.90
16158;DHT22;8184;60.256;18.694;2023-01-13T14:44:48;3.70;99.90
16158;DHT22;8184;60.256;18.694;2023-01-13T14:47:19;3.70;99.90
16158;DHT22;8184;60.256;18.694;2023-01-13T14:49:55;3.70;99.90
16158;DHT22;8184;60.256;18.694;2023-01-13T14:52:28;3.70;99.90
16158;DHT22;8184;60.256;18.694;2023-01-13T14:57:43;3.70;99.90
16158;DHT22;8184;60.256;18.694;2023-01-13T15:00:22;3.80;99.90
16158;DHT22;8184;60.256;18.694;2023-01-13T15:03:03;3.70;99.90
16158;DHT22;8184;60.256;18.694;2023-01-13T15:05:33;3.70;99.90
16158;DHT22;8184;60.256;18.694;2023-01-13T15:08:05;3.60;99.90
16158;DHT22;8184;60.256;18.694;2023-01-13T15:10:43;3.50;99.90
16158;DHT22;8184;60.256;18.694;2023-01-13T15:13:19;3.50;99.90
16158;DHT22;8184;60.256;18.694;2023-01-13T15:15:52;3.50;99.90
16158;DHT22;8184;60.256;18.694;2023-01-13T15:18:21;3.50;99.90
16158;DHT22;8184;60.256;18.694;2023-01-13T15:20:52;3.50;99.90
16158;DHT22;8184;60.256;18.694;2023-01-13T15:23:21;3.60;99.90
16158;DHT22;8184;60.256;18.694;2023-01-13T15:25:53;3.60;99.90
16158;DHT22;8184;60.256;18.694;2023-01-13T15:28:22;3.70;99.90
16158;DHT22;8184;60.256;18.694;2023-01-13T15:30:51;3.70;99.90
16158;DHT22;8184;60.256;18.694;2023-01-13T15:33:20;3.70;99.90
16158;DHT22;8184;60.256;18.694;2023-01-13T15:35:49;3.70;99.90
16158;DHT22;8184;60.256;18.694;2023-01-13T15:38:18;3.70;99.90
16158;DHT22;8184;60.256;18.694;2023-01-13T15:40:49;3.70;99.90
16158;DHT22;8184;60.256;18.694;2023-01-13T15:43:17;3.80;99.90
16158;DHT22;8184;60.256;18.694;2023-01-13T15:46:05;3.80;99.90
16158;DHT22;8184;60.256;18.694;2023-01-13T15:48:54;3.80;99.90
16158;DHT22;8184;60.256;18.694;2023-01-13T15:51:24;3.80;99.90
16158;DHT22;8184;60.256;18.694;2023-01-13T15:53:52;3.80;99.90
16158;DHT22;8184;60.256;18.694;2023-01-13T15:56:23;3.70;99.90
16158;DHT22;8184;60.256;18.694;2023-01-13T15:58:52;3.80;99.90
16158;DHT22;8184;60.256;18.694;2023-01-13T16:01:20;3.80;99.90
16158;DHT22;8184;60.256;18.694;2023-01-13T16:03:49;3.80;99.90
16158;DHT22;8184;60.256;18.694;2023-01-13T16:06:18;3.80;99.90
16158;DHT22;8184;60.256;18.694;2023-01-13T16:08:46;3.80;99.90
16158;DHT22;8184;60.256;18.694;2023-01-13T16:11:15;3.80;99.90
16158;DHT22;8184;60.256;18.694;2023-01-13T16:13:44;3.80;99.90
16158;DHT22;8184;60.256;18.694;2023-01-13T16:16:17;3.80;99.90
16158;DHT22;8184;60.256;18.694;2023-01-13T16:18:46;3.80;99.90
16158;DHT22;8184;60.256;18.694;2023-01-13T16:21:15;3.80;99.90
16158;DHT22;8184;60.256;18.694;2023-01-13T16:23:45;3.80;99.90
16158;DHT22;8184;60.256;18.694;2023-01-13T16:26:15;3.80;99.90
16158;DHT22;8184;60.256;18.694;2023-01-13T16:28:46;3.80;99.90
16158;DHT22;8184;60.256;18.694;2023-01-13T16:31:15;3.80;99.90
16158;DHT22;8184;60.256;18.694;2023-01-13T16:33:44;3.80;99.90
16158;DHT22;8184;60.256;18.694;2023-01-13T16:36:13;3.80;99.90
16158;DHT22;8184;60.256;18.694;2023-01-13T16:38:41;3.80;99.90